createdAt,value
2022-10-18T00:01:24.141Z,110.77
2022-10-18T00:07:17.624Z,106.67
2022-10-18T00:09:56.511Z,102.07
2022-10-18T00:18:30.978Z,103.07
2022-10-18T00:21:26.161Z,97.93
2022-10-18T00:27:02.725Z,92.33
2022-10-18T00:32:42.409Z,91.13
2022-10-18T00:35:34.597Z,82.83
2022-10-18T00:38:24.778Z,86.87
2022-10-18T00:41:13.495Z,84.17
2022-10-18T00:47:16.545Z,84.00
2022-10-18T00:50:09.220Z,85.87
2022-10-18T00:55:55.198Z,85.40
2022-10-18T00:58:40.051Z,87.70
2022-10-18T01:01:18.983Z,86.80
2022-10-18T01:04:01.367Z,85.07
2022-10-18T01:06:53.132Z,86.90
2022-10-18T01:09:37.441Z,86.57
2022-10-18T01:12:30.537Z,93.17
2022-10-18T01:15:17.662Z,94.00
2022-10-18T01:18:11.218Z,78.73
2022-10-18T01:21:48.873Z,87.00
2022-10-18T01:24:57.120Z,85.07
2022-10-18T01:28:02.343Z,89.63
2022-10-18T01:31:03.617Z,76.37
2022-10-18T01:33:47.506Z,83.67
2022-10-18T01:36:35.804Z,85.73
2022-10-18T01:42:33.202Z,71.53
2022-10-18T01:45:19.929Z,73.27
2022-10-18T01:48:43.763Z,65.30
2022-10-18T01:51:49.309Z,74.07
2022-10-18T01:54:45.771Z,77.37
2022-10-18T01:57:37.560Z,72.27
2022-10-18T02:00:19.006Z,73.67
2022-10-18T02:03:03.216Z,69.97
2022-10-18T02:05:57.227Z,67.87
2022-10-18T02:12:12.015Z,69.30
2022-10-18T02:14:59.747Z,74.17
2022-10-18T02:17:40.125Z,73.90
2022-10-18T02:20:52.063Z,72.83
2022-10-18T02:23:45.209Z,73.53
2022-10-18T02:26:26.681Z,72.33
2022-10-18T02:29:09.867Z,70.37
2022-10-18T02:31:53.807Z,65.70
2022-10-18T02:34:35.634Z,76.95
2022-10-18T02:37:17.771Z,69.77
2022-10-18T02:40:00.771Z,66.82
2022-10-18T02:42:47.635Z,62.75
2022-10-18T02:45:46.018Z,66.78
2022-10-18T02:48:27.688Z,79.55
2022-10-18T02:51:06.907Z,69.93
2022-10-18T02:53:45.508Z,68.78
2022-10-18T02:56:23.732Z,76.78
2022-10-18T02:59:03.072Z,76.72
2022-10-18T03:01:45.726Z,69.60
2022-10-18T03:04:34.764Z,64.53
2022-10-18T03:10:11.734Z,60.72
2022-10-18T03:12:46.974Z,71.63
2022-10-18T03:15:27.068Z,64.57
2022-10-18T03:18:03.970Z,74.00
2022-10-18T03:20:39.383Z,76.80
2022-10-18T03:23:14.263Z,79.10
2022-10-18T03:25:51.039Z,86.30
2022-10-18T03:28:26.991Z,79.70
2022-10-18T03:31:06.001Z,78.67
2022-10-18T03:33:41.750Z,83.60
2022-10-18T03:36:17.021Z,81.90
2022-10-18T03:38:52.562Z,82.67
2022-10-18T03:41:28.500Z,82.70
2022-10-18T03:44:02.693Z,85.93
2022-10-18T03:46:38.122Z,94.83
2022-10-18T03:49:13.748Z,91.70
2022-10-18T03:51:50.609Z,85.47
2022-10-18T03:54:25.748Z,86.27
2022-10-18T03:57:02.826Z,100.13
2022-10-18T03:59:39.751Z,98.83
2022-10-18T04:02:14.682Z,103.30
2022-10-18T04:04:49.620Z,101.20
2022-10-18T04:07:27.466Z,99.97
2022-10-18T04:10:06.728Z,105.97
2022-10-18T04:12:47.792Z,105.37
2022-10-18T04:15:22.886Z,105.00
2022-10-18T04:17:58.536Z,106.77
2022-10-18T04:20:39.039Z,102.40
2022-10-18T04:23:16.974Z,114.27
2022-10-18T04:25:53.001Z,112.87
2022-10-18T04:28:32.711Z,105.87
2022-10-18T04:31:08.214Z,112.60
2022-10-18T04:33:43.926Z,109.90
2022-10-18T04:36:20.257Z,106.57
2022-10-18T04:39:12.954Z,107.00
2022-10-18T04:41:52.232Z,116.80
2022-10-18T04:44:32.817Z,110.37
2022-10-18T04:47:16.310Z,111.70
2022-10-18T04:49:51.930Z,111.97
2022-10-18T04:52:26.691Z,116.03
2022-10-18T04:55:02.008Z,112.87
2022-10-18T04:57:37.136Z,119.03
2022-10-18T05:00:18.500Z,114.00
2022-10-18T05:03:01.618Z,121.33
2022-10-18T05:05:49.609Z,108.20
2022-10-18T05:08:36.921Z,119.63
2022-10-18T05:11:15.526Z,119.10
2022-10-18T05:16:49.979Z,112.23
2022-10-18T05:19:27.030Z,110.70
2022-10-18T05:22:03.265Z,109.70
2022-10-18T05:24:42.025Z,108.17
2022-10-18T05:27:25.573Z,102.20
2022-10-18T05:30:05.460Z,91.00
2022-10-18T05:32:48.234Z,103.47
2022-10-18T05:35:26.154Z,102.80
2022-10-18T05:38:01.389Z,107.10
2022-10-18T05:40:38.060Z,115.57
2022-10-18T05:43:13.671Z,111.70
2022-10-18T05:45:57.092Z,101.70
2022-10-18T05:48:35.847Z,113.90
2022-10-18T05:51:12.838Z,106.80
2022-10-18T05:53:49.490Z,116.40
2022-10-18T05:56:24.554Z,116.03
2022-10-18T05:59:00.257Z,111.70
2022-10-18T06:01:38.306Z,117.27
2022-10-18T06:04:21.954Z,112.13
2022-10-18T06:07:02.741Z,121.57
2022-10-18T06:09:44.337Z,83.77
2022-10-18T06:12:24.316Z,81.03
2022-10-18T06:15:01.527Z,83.63
2022-10-18T06:17:42.037Z,80.90
2022-10-18T06:20:22.628Z,74.57
2022-10-18T06:23:00.833Z,81.00
2022-10-18T06:25:40.498Z,69.97
2022-10-18T06:28:16.439Z,78.63
2022-10-18T06:31:05.793Z,78.17
2022-10-18T06:33:41.271Z,86.83
2022-10-18T06:36:23.828Z,93.43
2022-10-18T06:39:01.260Z,91.70
2022-10-18T06:41:39.466Z,93.97
2022-10-18T06:44:27.110Z,88.70
2022-10-18T06:47:05.048Z,88.40
2022-10-18T06:49:41.179Z,85.90
2022-10-18T06:52:22.131Z,74.77
2022-10-18T06:54:58.502Z,70.33
2022-10-18T06:57:39.160Z,91.17
2022-10-18T07:00:24.445Z,88.50
2022-10-18T07:03:10.674Z,80.80
2022-10-18T07:05:56.581Z,80.87
2022-10-18T07:08:39.504Z,88.70
2022-10-18T07:11:18.756Z,82.07
2022-10-18T07:13:55.454Z,79.83
2022-10-18T07:16:31.600Z,78.73
2022-10-18T07:19:09.849Z,92.87
2022-10-18T07:21:46.674Z,93.40
2022-10-18T07:24:28.566Z,88.80
2022-10-18T07:27:05.818Z,96.17
2022-10-18T07:29:44.401Z,88.23
2022-10-18T07:32:25.246Z,84.00
2022-10-18T07:35:04.330Z,86.33
2022-10-18T07:37:39.619Z,83.87
2022-10-18T07:40:24.204Z,92.47
2022-10-18T07:43:04.500Z,86.83
2022-10-18T07:45:41.118Z,83.23
2022-10-18T07:48:16.227Z,86.60
2022-10-18T07:50:54.607Z,80.90
2022-10-18T07:53:30.297Z,80.07
2022-10-18T07:56:18.751Z,83.53
2022-10-18T07:58:57.655Z,88.23
2022-10-18T08:01:33.871Z,92.30
2022-10-18T08:04:15.495Z,82.77
2022-10-18T08:06:52.505Z,79.13
2022-10-18T08:09:27.622Z,89.93
2022-10-18T08:12:09.369Z,83.03
2022-10-18T08:14:48.564Z,87.80
2022-10-18T08:17:25.246Z,83.50
2022-10-18T08:20:11.693Z,78.87
2022-10-18T08:22:49.484Z,90.63
2022-10-18T08:25:25.800Z,98.33
2022-10-18T08:28:05.722Z,85.53
2022-10-18T08:30:44.430Z,83.17
2022-10-18T08:33:21.543Z,90.73
2022-10-18T08:36:12.456Z,89.40
2022-10-18T08:38:48.641Z,80.40
2022-10-18T08:41:54.656Z,85.63
2022-10-18T08:44:38.769Z,89.10
2022-10-18T08:47:22.098Z,85.90
2022-10-18T08:50:04.175Z,76.47
2022-10-18T08:52:49.058Z,88.07
2022-10-18T08:55:37.685Z,87.07
2022-10-18T08:58:22.106Z,84.27
2022-10-18T09:01:12.335Z,83.47
2022-10-18T09:04:11.979Z,79.13
2022-10-18T09:06:53.551Z,77.83
2022-10-18T09:09:41.145Z,84.63
2022-10-18T09:12:35.632Z,73.20
2022-10-18T09:15:38.047Z,81.63
2022-10-18T09:18:33.712Z,67.27
2022-10-18T09:21:22.376Z,75.63
2022-10-18T09:24:07.549Z,68.07
2022-10-18T09:27:08.730Z,80.97
2022-10-18T09:29:57.006Z,68.97
2022-10-18T09:32:38.545Z,77.63
2022-10-18T09:35:24.789Z,78.60
2022-10-18T09:38:07.287Z,78.17
2022-10-18T09:40:49.353Z,73.00
2022-10-18T09:43:28.451Z,71.37
2022-10-18T09:46:06.252Z,76.60
2022-10-18T09:48:49.266Z,81.17
2022-10-18T09:51:29.807Z,73.60
2022-10-18T09:54:26.003Z,78.83
2022-10-18T09:57:07.390Z,79.37
2022-10-18T09:59:54.664Z,82.90
2022-10-18T10:02:30.073Z,70.10
2022-10-18T10:05:04.741Z,79.20
2022-10-18T10:07:50.740Z,85.43
2022-10-18T10:10:28.852Z,77.47
2022-10-18T10:13:11.095Z,76.37
2022-10-18T10:15:56.879Z,79.43
2022-10-18T10:18:34.626Z,72.83
2022-10-18T10:21:12.102Z,84.37
2022-10-18T10:23:56.229Z,81.93
2022-10-18T10:26:39.523Z,91.10
2022-10-18T10:30:07.504Z,88.27
2022-10-18T10:32:53.932Z,78.70
2022-10-18T10:35:54.566Z,75.17
2022-10-18T10:38:32.608Z,76.43
2022-10-18T10:41:23.081Z,73.93
2022-10-18T10:43:59.085Z,82.73
2022-10-18T10:46:45.454Z,83.60
2022-10-18T10:49:39.606Z,79.03
2022-10-18T10:52:27.341Z,73.87
2022-10-18T10:55:16.746Z,71.57
2022-10-18T10:58:02.195Z,75.60
2022-10-18T11:00:48.087Z,75.67
2022-10-18T11:03:29.027Z,74.27
2022-10-18T11:06:05.431Z,72.83
2022-10-18T11:11:32.891Z,77.47
2022-10-18T11:14:26.476Z,91.37
2022-10-18T11:17:10.253Z,86.80
2022-10-18T11:20:12.107Z,97.03
2022-10-18T11:22:51.834Z,101.07
2022-10-18T11:25:32.760Z,90.07
2022-10-18T11:28:15.791Z,105.80
2022-10-18T11:31:01.569Z,103.30
2022-10-18T11:34:07.548Z,108.00
2022-10-18T11:37:09.747Z,113.27
2022-10-18T11:40:06.113Z,112.27
2022-10-18T11:42:53.599Z,106.00
2022-10-18T11:45:40.509Z,103.40
2022-10-18T11:48:51.118Z,107.57
2022-10-18T11:51:50.278Z,132.57
2022-10-18T11:54:59.367Z,120.67
2022-10-18T11:57:58.336Z,128.53
2022-10-18T12:00:52.587Z,124.57
2022-10-18T12:03:43.537Z,127.30
2022-10-18T12:06:22.493Z,124.20
2022-10-18T12:09:04.298Z,121.13
2022-10-18T12:11:50.224Z,130.07
2022-10-18T12:14:35.915Z,135.63
2022-10-18T12:17:42.870Z,136.20
2022-10-18T12:20:25.928Z,136.50
2022-10-18T12:23:13.645Z,133.57
2022-10-18T12:25:54.327Z,139.63
2022-10-18T12:28:39.343Z,137.40
2022-10-18T12:31:39.427Z,120.70
2022-10-18T12:34:41.154Z,134.93
2022-10-18T12:37:42.492Z,131.27
2022-10-18T12:40:22.085Z,135.53
2022-10-18T12:42:58.958Z,129.87
2022-10-18T12:45:36.731Z,135.60
2022-10-18T12:48:33.504Z,130.70
2022-10-18T12:51:23.080Z,137.97
2022-10-18T12:54:26.282Z,123.30
2022-10-18T12:57:11.376Z,140.67
2022-10-18T12:59:49.913Z,137.53
2022-10-18T13:02:33.863Z,143.87
2022-10-18T13:06:04.256Z,140.57
2022-10-18T13:08:49.652Z,138.57
2022-10-18T13:12:03.215Z,132.63
2022-10-18T13:15:24.182Z,138.37
2022-10-18T13:18:11.973Z,135.33
2022-10-18T13:20:53.902Z,134.90
2022-10-18T13:23:43.543Z,137.13
2022-10-18T13:26:35.522Z,134.63
2022-10-18T13:29:52.570Z,133.97
2022-10-18T13:32:38.727Z,135.47
2022-10-18T13:35:50.893Z,128.57
2022-10-18T13:38:52.665Z,128.17
2022-10-18T13:41:34.253Z,141.00
2022-10-18T13:44:43.189Z,136.13
2022-10-18T13:47:42.102Z,143.17
2022-10-18T13:50:51.311Z,141.67
2022-10-18T13:53:44.291Z,130.40
2022-10-18T13:57:00.285Z,127.87
2022-10-18T13:59:56.618Z,141.90
2022-10-18T14:03:31.699Z,144.40
2022-10-18T14:06:18.060Z,147.40
2022-10-18T14:09:25.750Z,160.97
2022-10-18T14:12:13.665Z,161.23
2022-10-18T14:14:53.251Z,151.47
2022-10-18T14:20:40.017Z,157.33
2022-10-18T14:23:39.135Z,153.30
2022-10-18T14:26:24.528Z,149.40
2022-10-18T14:29:12.295Z,161.10
2022-10-18T14:31:58.096Z,169.50
2022-10-18T14:34:34.660Z,169.03
2022-10-18T14:37:18.409Z,168.80
2022-10-18T14:39:59.917Z,171.23
2022-10-18T14:42:40.882Z,159.73
2022-10-18T14:45:29.347Z,167.40
2022-10-18T14:48:32.948Z,165.00
2022-10-18T14:51:12.015Z,168.33
2022-10-18T14:53:52.492Z,170.73
2022-10-18T14:56:34.242Z,180.83
2022-10-18T14:59:26.099Z,153.17
2022-10-18T15:02:09.688Z,164.63
2022-10-18T15:05:00.260Z,150.73
2022-10-18T15:07:37.857Z,141.93
2022-10-18T15:10:23.249Z,147.30
2022-10-18T15:24:34.469Z,144.43
2022-10-18T15:27:31.359Z,137.90
2022-10-18T15:38:09.022Z,148.87
2022-10-18T15:40:46.903Z,142.50
2022-10-18T15:43:43.846Z,145.43
2022-10-18T15:46:39.140Z,136.67
2022-10-18T15:49:54.796Z,141.50
2022-10-18T15:52:46.205Z,136.40
2022-10-18T15:56:01.660Z,143.50
2022-10-18T15:58:52.779Z,135.87
2022-10-18T16:01:39.657Z,141.93
2022-10-18T16:04:26.352Z,133.70
2022-10-18T16:07:02.793Z,137.33
2022-10-18T16:09:43.235Z,135.63
2022-10-18T16:12:23.565Z,135.40
2022-10-18T16:15:03.468Z,139.73
2022-10-18T16:17:42.561Z,146.13
2022-10-18T16:20:29.193Z,133.90
2022-10-18T16:23:05.629Z,139.33
2022-10-18T16:25:40.436Z,149.20
2022-10-18T16:28:25.113Z,130.00
2022-10-18T16:31:08.233Z,154.23
2022-10-18T16:33:43.869Z,133.60
2022-10-18T16:36:32.368Z,134.53
2022-10-18T16:39:15.666Z,136.93
2022-10-18T16:41:51.080Z,154.73
2022-10-18T16:44:31.927Z,143.33
2022-10-18T16:47:11.985Z,147.90
2022-10-18T16:49:49.348Z,151.23
2022-10-18T16:52:24.367Z,161.07
2022-10-18T16:55:17.701Z,194.50
2022-10-18T16:57:55.299Z,176.80
2022-10-18T17:00:31.147Z,181.07
2022-10-18T17:03:13.199Z,172.50
2022-10-18T17:05:49.009Z,188.40
2022-10-18T17:08:30.429Z,193.53
2022-10-18T17:11:11.623Z,184.17
2022-10-18T17:13:49.042Z,203.73
2022-10-18T17:17:12.394Z,184.60
2022-10-18T17:19:51.069Z,198.13
2022-10-18T17:22:25.608Z,183.83
2022-10-18T17:25:00.661Z,187.93
2022-10-18T17:27:37.301Z,195.97
2022-10-18T17:30:13.586Z,193.23
2022-10-18T17:32:48.844Z,180.60
2022-10-18T17:35:27.070Z,189.50
2022-10-18T17:38:02.812Z,187.10
2022-10-18T17:40:37.967Z,185.67
2022-10-18T17:43:14.836Z,201.37
2022-10-18T17:45:53.969Z,219.27
2022-10-18T17:48:31.546Z,214.67
2022-10-18T17:51:12.812Z,202.70
2022-10-18T17:53:48.233Z,203.47
2022-10-18T17:56:23.959Z,210.50
2022-10-18T17:58:58.609Z,202.73
2022-10-18T18:01:35.174Z,186.10
2022-10-18T18:04:10.305Z,203.43
2022-10-18T18:06:46.793Z,200.00
2022-10-18T18:09:21.462Z,197.17
2022-10-18T18:11:56.639Z,187.30
2022-10-18T18:14:30.607Z,198.70
2022-10-18T18:17:05.035Z,215.57
2022-10-18T18:19:39.223Z,215.53
2022-10-18T18:22:15.336Z,211.63
2022-10-18T18:24:49.772Z,209.20
2022-10-18T18:27:24.555Z,221.87
2022-10-18T18:29:58.390Z,208.07
2022-10-18T18:32:32.165Z,211.17
2022-10-18T18:35:06.215Z,217.73
2022-10-18T18:37:44.866Z,221.90
2022-10-18T18:40:18.307Z,212.50
2022-10-18T18:43:07.063Z,222.83
2022-10-18T18:45:53.955Z,205.77
2022-10-18T18:48:27.951Z,218.60
2022-10-18T18:51:01.597Z,242.00
2022-10-18T18:53:38.129Z,230.73
2022-10-18T18:56:17.109Z,225.27
2022-10-18T18:58:52.178Z,218.70
2022-10-18T19:01:27.720Z,215.80
2022-10-18T19:04:02.850Z,233.50
2022-10-18T19:06:39.135Z,228.43
2022-10-18T19:09:21.014Z,238.53
2022-10-18T19:11:57.883Z,226.67
2022-10-18T19:14:32.374Z,233.37
2022-10-18T19:17:08.429Z,211.20
2022-10-18T19:19:46.790Z,205.33
2022-10-18T19:22:20.609Z,228.57
2022-10-18T19:24:56.465Z,220.13
2022-10-18T19:27:30.327Z,217.87
2022-10-18T19:30:04.559Z,223.20
2022-10-18T19:32:38.575Z,230.83
2022-10-18T19:35:13.017Z,230.43
2022-10-18T19:37:46.583Z,224.70
2022-10-18T19:40:22.383Z,240.63
2022-10-18T19:42:56.724Z,236.33
2022-10-18T19:45:40.679Z,221.57
2022-10-18T19:48:14.853Z,234.03
2022-10-18T19:50:48.124Z,239.27
2022-10-18T19:53:22.143Z,229.17
2022-10-18T19:56:03.192Z,225.57
2022-10-18T19:58:37.503Z,222.17
2022-10-18T20:01:11.570Z,233.50
2022-10-18T20:03:49.377Z,223.73
2022-10-18T20:06:24.000Z,225.33
2022-10-18T20:08:58.718Z,226.60
2022-10-18T20:11:35.615Z,217.80
2022-10-18T20:14:13.949Z,236.77
2022-10-18T20:16:47.380Z,231.10
2022-10-18T20:19:21.396Z,232.33
2022-10-18T20:21:58.881Z,230.57
2022-10-18T20:24:33.126Z,230.50
2022-10-18T20:27:11.512Z,226.63
2022-10-18T20:29:45.689Z,225.30
2022-10-18T20:32:20.051Z,222.13
2022-10-18T20:34:53.838Z,222.70
2022-10-18T20:37:28.224Z,222.23
2022-10-18T20:40:02.575Z,219.33
2022-10-18T20:42:38.714Z,218.17
2022-10-18T20:45:14.223Z,239.03
2022-10-18T20:47:48.269Z,224.87
2022-10-18T20:50:22.735Z,222.53
2022-10-18T20:52:56.950Z,245.13
2022-10-18T20:55:32.308Z,236.93
2022-10-18T20:58:07.789Z,220.77
2022-10-18T21:00:42.289Z,238.30
2022-10-18T21:03:16.542Z,232.60
2022-10-18T21:05:50.502Z,227.77
2022-10-18T21:08:24.334Z,202.17
2022-10-18T21:10:58.066Z,220.90
2022-10-18T21:13:36.902Z,223.63
2022-10-18T21:16:11.075Z,213.57
2022-10-18T21:18:44.347Z,217.00
2022-10-18T21:21:19.594Z,230.43
2022-10-18T21:23:53.133Z,216.43
2022-10-18T21:26:28.473Z,219.87
2022-10-18T21:29:04.235Z,219.63
2022-10-18T21:31:41.125Z,224.73
2022-10-18T21:34:17.968Z,212.50
2022-10-18T21:36:53.224Z,215.77
2022-10-18T21:39:32.428Z,222.30
2022-10-18T21:42:07.038Z,217.43
2022-10-18T21:44:46.250Z,223.57
2022-10-18T21:47:20.474Z,213.67
2022-10-18T21:49:54.747Z,218.10
2022-10-18T21:52:29.108Z,210.77
2022-10-18T21:55:03.157Z,221.80
2022-10-18T22:00:19.981Z,212.87
2022-10-18T22:02:53.566Z,205.87
2022-10-18T22:05:28.031Z,215.57
2022-10-18T22:08:01.706Z,208.70
2022-10-18T22:10:36.029Z,215.07
2022-10-18T22:13:09.841Z,201.30
2022-10-18T22:15:45.717Z,199.03
2022-10-18T22:18:20.001Z,192.23
2022-10-18T22:20:59.632Z,191.27
2022-10-18T22:23:37.938Z,171.63
2022-10-18T22:26:14.702Z,176.83
2022-10-18T22:28:51.586Z,180.00
2022-10-18T22:31:28.884Z,185.77
2022-10-18T22:34:04.906Z,185.13
2022-10-18T22:36:39.869Z,172.83
2022-10-18T22:39:15.665Z,164.13
2022-10-18T22:41:53.355Z,154.60
2022-10-18T22:44:27.887Z,147.27
2022-10-18T22:47:03.620Z,150.07
2022-10-18T22:49:37.007Z,149.93
2022-10-18T22:52:11.439Z,161.83
2022-10-18T22:54:45.785Z,151.23
2022-10-18T22:57:19.818Z,149.67
2022-10-18T22:59:53.224Z,143.13
2022-10-18T23:02:29.412Z,160.03
2022-10-18T23:05:03.869Z,183.20
2022-10-18T23:07:39.305Z,173.03
2022-10-18T23:10:13.710Z,171.27
2022-10-18T23:12:47.662Z,154.67
2022-10-18T23:15:21.883Z,162.13
2022-10-18T23:17:57.954Z,170.50
2022-10-18T23:20:33.030Z,160.37
2022-10-18T23:23:06.803Z,170.47
2022-10-18T23:25:41.166Z,172.47
2022-10-18T23:28:15.422Z,177.60
2022-10-18T23:30:49.646Z,171.00
2022-10-18T23:33:25.931Z,189.27
2022-10-18T23:36:01.716Z,157.77
2022-10-18T23:38:35.243Z,182.23
2022-10-18T23:41:09.625Z,190.37
2022-10-18T23:43:43.090Z,172.07
2022-10-18T23:46:18.817Z,185.47
2022-10-18T23:48:55.759Z,172.53
2022-10-18T23:54:58.655Z,200.50
2022-10-18T23:57:33.275Z,199.83
